createdAt,value
2023-03-29T00:01:48.969Z,95574.00
2023-03-29T00:05:49.040Z,95583.00
2023-03-29T00:09:49.098Z,95607.00
2023-03-29T00:13:49.328Z,95617.00
2023-03-29T00:17:49.450Z,95619.00
2023-03-29T00:21:49.459Z,95613.00
2023-03-29T00:25:49.648Z,95615.00
2023-03-29T00:29:49.759Z,95632.00
2023-03-29T00:33:49.810Z,95634.00
2023-03-29T00:37:50.063Z,95642.00
2023-03-29T00:41:50.206Z,95644.00
2023-03-29T00:45:50.269Z,95650.00
2023-03-29T00:49:50.508Z,95656.00
2023-03-29T00:53:50.623Z,95650.00
2023-03-29T00:57:50.739Z,95648.00
2023-03-29T01:01:50.938Z,95666.00
2023-03-29T01:05:51.036Z,95679.00
2023-03-29T01:09:51.263Z,95679.00
2023-03-29T01:13:51.418Z,95664.00
2023-03-29T01:17:51.508Z,95666.00
2023-03-29T01:21:51.703Z,95648.00
2023-03-29T01:25:51.831Z,95652.00
2023-03-29T01:29:51.938Z,95652.00
2023-03-29T01:33:52.129Z,95652.00
2023-03-29T01:37:52.303Z,95656.00
2023-03-29T01:41:52.418Z,95656.00
2023-03-29T01:45:52.679Z,95634.00
2023-03-29T01:49:52.875Z,95636.00
2023-03-29T01:53:52.983Z,95634.00
2023-03-29T01:57:54.564Z,95632.00
2023-03-29T02:01:53.481Z,95632.00
2023-03-29T02:05:53.512Z,95632.00
2023-03-29T02:09:53.746Z,95624.00
2023-03-29T02:13:54.035Z,95622.00
2023-03-29T02:17:54.146Z,95615.00
2023-03-29T02:21:54.323Z,95607.00
2023-03-29T02:25:54.589Z,95601.00
2023-03-29T02:29:54.677Z,95601.00
2023-03-29T02:33:54.933Z,95603.00
2023-03-29T02:37:55.116Z,95611.00
2023-03-29T02:41:55.261Z,95613.00
2023-03-29T02:45:55.513Z,95603.00
2023-03-29T02:49:55.660Z,95599.00
2023-03-29T02:53:55.799Z,95593.00
2023-03-29T02:57:56.104Z,95579.00
2023-03-29T03:01:56.393Z,95583.00
2023-03-29T03:05:56.432Z,95587.00
2023-03-29T03:09:56.751Z,95579.00
2023-03-29T03:13:56.919Z,95577.00
2023-03-29T03:17:57.121Z,95579.00
2023-03-29T03:21:57.383Z,95587.00
2023-03-29T03:25:57.280Z,95587.00
2023-03-29T03:29:57.195Z,95595.00
2023-03-29T03:33:57.255Z,95605.00
2023-03-29T03:37:57.192Z,95611.00
2023-03-29T03:41:57.133Z,95619.00
2023-03-29T03:45:57.179Z,95624.00
2023-03-29T03:49:57.085Z,95615.00
2023-03-29T03:53:57.001Z,95607.00
2023-03-29T03:57:57.036Z,95599.00
2023-03-29T04:01:57.012Z,95601.00
2023-03-29T04:05:56.894Z,95597.00
2023-03-29T04:09:57.152Z,95593.00
2023-03-29T04:13:57.290Z,95585.00
2023-03-29T04:17:57.516Z,95570.00
2023-03-29T04:21:57.658Z,95566.00
2023-03-29T04:25:57.801Z,95556.00
2023-03-29T04:29:57.904Z,95558.00
2023-03-29T04:34:00.316Z,95560.00
2023-03-29T04:37:58.270Z,95542.00
2023-03-29T04:41:58.298Z,95530.00
2023-03-29T04:45:58.482Z,95528.00
2023-03-29T04:49:58.606Z,95524.00
2023-03-29T04:53:58.608Z,95530.00
2023-03-29T04:57:58.834Z,95530.00
2023-03-29T05:01:59.012Z,95524.00
2023-03-29T05:05:59.886Z,95526.00
2023-03-29T05:09:59.380Z,95515.00
2023-03-29T05:13:59.595Z,95515.00
2023-03-29T05:17:59.795Z,95505.00
2023-03-29T05:21:59.740Z,95503.00
2023-03-29T05:25:59.709Z,95503.00
2023-03-29T05:29:59.619Z,95503.00
2023-03-29T05:33:59.636Z,95509.00
2023-03-29T05:37:59.965Z,95499.00
2023-03-29T05:41:59.916Z,95507.00
2023-03-29T05:46:00.111Z,95507.00
2023-03-29T05:49:59.619Z,95511.00
2023-03-29T05:53:59.447Z,95515.00
2023-03-29T05:57:59.540Z,95519.00
2023-03-29T06:01:59.535Z,95515.00
2023-03-29T06:05:59.478Z,95511.00
2023-03-29T06:09:59.426Z,95513.00
2023-03-29T06:13:59.582Z,95526.00
2023-03-29T06:17:59.652Z,95534.00
2023-03-29T06:22:00.086Z,95524.00
2023-03-29T06:25:59.787Z,95530.00
2023-03-29T06:29:59.858Z,95530.00
2023-03-29T06:33:59.896Z,95538.00
2023-03-29T06:38:00.158Z,95542.00
2023-03-29T06:42:03.465Z,95542.00
2023-03-29T06:46:00.869Z,95556.00
2023-03-29T06:50:00.004Z,95560.00
2023-03-29T06:53:59.945Z,95566.00
2023-03-29T06:58:02.263Z,95566.00
2023-03-29T07:02:00.119Z,95572.00
2023-03-29T07:05:59.972Z,95552.00
2023-03-29T07:09:59.941Z,95550.00
2023-03-29T07:13:59.942Z,95566.00
2023-03-29T07:18:00.085Z,95564.00
2023-03-29T07:21:59.766Z,95564.00
2023-03-29T07:25:59.817Z,95552.00
2023-03-29T07:29:59.974Z,95556.00
2023-03-29T07:33:59.970Z,95556.00
2023-03-29T07:37:59.607Z,95568.00
2023-03-29T07:42:00.844Z,95560.00
2023-03-29T07:46:00.162Z,95560.00
2023-03-29T07:49:59.736Z,95564.00
2023-03-29T07:53:59.477Z,95560.00
2023-03-29T07:57:59.510Z,95570.00
2023-03-29T08:01:59.959Z,95556.00
2023-03-29T08:05:59.909Z,95554.00
2023-03-29T08:10:00.001Z,95556.00
2023-03-29T08:14:00.094Z,95560.00
2023-03-29T08:18:00.300Z,95564.00
2023-03-29T08:22:00.320Z,95562.00
2023-03-29T08:26:00.358Z,95564.00
2023-03-29T08:30:00.631Z,95562.00
2023-03-29T08:34:01.054Z,95566.00
2023-03-29T08:38:00.976Z,95570.00
2023-03-29T08:42:01.617Z,95583.00
2023-03-29T08:46:01.294Z,95587.00
2023-03-29T08:50:01.548Z,95593.00
2023-03-29T08:54:02.084Z,95593.00
2023-03-29T08:58:01.734Z,95583.00
2023-03-29T09:02:01.798Z,95585.00
2023-03-29T09:06:01.880Z,95587.00
2023-03-29T09:10:02.198Z,95589.00
2023-03-29T09:14:02.167Z,95587.00
2023-03-29T09:18:02.358Z,95585.00
2023-03-29T09:22:02.359Z,95583.00
2023-03-29T09:26:02.497Z,95585.00
2023-03-29T09:30:02.773Z,95593.00
2023-03-29T09:34:03.094Z,95587.00
2023-03-29T09:38:02.782Z,95589.00
2023-03-29T09:42:02.891Z,95585.00
2023-03-29T09:46:03.179Z,95581.00
2023-03-29T09:50:03.134Z,95572.00
2023-03-29T09:54:03.626Z,95564.00
2023-03-29T09:58:03.506Z,95568.00
2023-03-29T10:02:03.446Z,95556.00
2023-03-29T10:06:03.574Z,95554.00
2023-03-29T10:10:03.761Z,95544.00
2023-03-29T10:14:04.041Z,95540.00
2023-03-29T10:18:03.933Z,95536.00
2023-03-29T10:22:04.163Z,95536.00
2023-03-29T10:26:04.335Z,95538.00
2023-03-29T10:30:04.738Z,95530.00
2023-03-29T10:34:04.764Z,95532.00
2023-03-29T10:38:05.076Z,95532.00
2023-03-29T10:42:05.037Z,95534.00
2023-03-29T10:46:05.788Z,95530.00
2023-03-29T10:50:05.248Z,95532.00
2023-03-29T10:54:05.556Z,95530.00
2023-03-29T10:58:05.665Z,95534.00
2023-03-29T11:02:05.842Z,95534.00
2023-03-29T11:06:06.105Z,95528.00
2023-03-29T11:10:06.322Z,95534.00
2023-03-29T11:14:06.396Z,95517.00
2023-03-29T11:18:06.813Z,95517.00
2023-03-29T11:22:06.940Z,95509.00
2023-03-29T11:26:07.046Z,95507.00
2023-03-29T11:30:06.989Z,95505.00
2023-03-29T11:34:07.151Z,95505.00
2023-03-29T11:38:06.713Z,95499.00
2023-03-29T11:42:06.751Z,95497.00
2023-03-29T11:46:06.774Z,95497.00
2023-03-29T11:50:06.609Z,95495.00
2023-03-29T11:54:06.718Z,95483.00
2023-03-29T11:58:06.588Z,95476.00
2023-03-29T12:02:06.629Z,95468.00
2023-03-29T12:06:06.828Z,95466.00
2023-03-29T12:10:07.103Z,95452.00
2023-03-29T12:14:07.212Z,95446.00
2023-03-29T12:18:07.562Z,95442.00
2023-03-29T12:22:07.677Z,95434.00
2023-03-29T12:26:07.791Z,95438.00
2023-03-29T12:30:08.151Z,95429.00
2023-03-29T12:34:08.334Z,95423.00
2023-03-29T12:38:08.403Z,95419.00
2023-03-29T12:42:08.784Z,95411.00
2023-03-29T12:46:08.788Z,95421.00
2023-03-29T12:50:08.886Z,95409.00
2023-03-29T12:54:09.171Z,95409.00
2023-03-29T12:58:09.316Z,95407.00
2023-03-29T13:02:09.466Z,95399.00
2023-03-29T13:06:09.692Z,95385.00
2023-03-29T13:10:09.872Z,95395.00
2023-03-29T13:14:09.995Z,95383.00
2023-03-29T13:18:11.781Z,95381.00
2023-03-29T13:22:10.155Z,95389.00
2023-03-29T13:26:10.351Z,95391.00
2023-03-29T13:30:10.364Z,95389.00
2023-03-29T13:34:10.326Z,95397.00
2023-03-29T13:38:10.214Z,95407.00
2023-03-29T13:42:10.235Z,95399.00
2023-03-29T13:46:10.248Z,95407.00
2023-03-29T13:50:10.078Z,95405.00
2023-03-29T13:54:10.129Z,95393.00
2023-03-29T13:58:10.094Z,95385.00
2023-03-29T14:02:10.047Z,95385.00
2023-03-29T14:06:10.077Z,95381.00
2023-03-29T14:10:09.955Z,95383.00
2023-03-29T14:14:09.875Z,95387.00
2023-03-29T14:18:09.982Z,95389.00
2023-03-29T14:22:09.849Z,95385.00
2023-03-29T14:26:09.786Z,95385.00
2023-03-29T14:30:09.884Z,95378.00
2023-03-29T14:34:10.102Z,95381.00
2023-03-29T14:38:10.225Z,95389.00
2023-03-29T14:42:10.302Z,95387.00
2023-03-29T14:46:10.625Z,95389.00
2023-03-29T14:50:10.680Z,95385.00
2023-03-29T14:54:10.684Z,95387.00
2023-03-29T14:58:11.270Z,95385.00
2023-03-29T15:02:10.809Z,95393.00
2023-03-29T15:06:10.782Z,95395.00
2023-03-29T15:10:10.868Z,95397.00
2023-03-29T15:14:10.914Z,95385.00
2023-03-29T15:18:10.821Z,95383.00
2023-03-29T15:22:10.808Z,95370.00
2023-03-29T15:26:10.860Z,95360.00
2023-03-29T15:30:10.886Z,95350.00
2023-03-29T15:34:11.137Z,95350.00
2023-03-29T15:38:10.908Z,95346.00
2023-03-29T15:42:11.051Z,95346.00
2023-03-29T15:46:11.114Z,95350.00
2023-03-29T15:50:11.173Z,95342.00
2023-03-29T15:54:11.419Z,95338.00
2023-03-29T15:58:11.600Z,95333.00
2023-03-29T16:02:11.442Z,95329.00
2023-03-29T16:06:11.625Z,95334.00
2023-03-29T16:10:11.703Z,95331.00
2023-03-29T16:14:11.724Z,95336.00
2023-03-29T16:18:11.822Z,95331.00
2023-03-29T16:22:11.861Z,95327.00
2023-03-29T16:26:11.840Z,95333.00
2023-03-29T16:30:11.979Z,95333.00
2023-03-29T16:34:11.931Z,95325.00
2023-03-29T16:38:12.029Z,95329.00
2023-03-29T16:42:12.164Z,95321.00
2023-03-29T16:46:12.179Z,95317.00
2023-03-29T16:50:12.238Z,95321.00
2023-03-29T16:54:12.305Z,95325.00
2023-03-29T16:58:12.284Z,95317.00
2023-03-29T17:02:12.377Z,95311.00
2023-03-29T17:06:12.489Z,95311.00
2023-03-29T17:10:12.477Z,95315.00
2023-03-29T17:14:12.627Z,95321.00
2023-03-29T17:18:12.762Z,95323.00
2023-03-29T17:22:12.702Z,95315.00
2023-03-29T17:26:12.842Z,95317.00
2023-03-29T17:30:12.926Z,95325.00
2023-03-29T17:34:12.962Z,95325.00
2023-03-29T17:38:13.130Z,95325.00
2023-03-29T17:42:13.306Z,95336.00
2023-03-29T17:46:13.277Z,95336.00
2023-03-29T17:50:13.458Z,95336.00
2023-03-29T17:54:13.587Z,95342.00
2023-03-29T17:58:13.596Z,95346.00
2023-03-29T18:02:13.846Z,95340.00
2023-03-29T18:06:13.984Z,95354.00
2023-03-29T18:10:14.009Z,95352.00
2023-03-29T18:14:14.278Z,95352.00
2023-03-29T18:18:14.402Z,95356.00
2023-03-29T18:22:14.398Z,95348.00
2023-03-29T18:26:14.599Z,95346.00
2023-03-29T18:30:14.761Z,95350.00
2023-03-29T18:34:14.823Z,95348.00
2023-03-29T18:38:15.050Z,95360.00
2023-03-29T18:42:15.183Z,95354.00
2023-03-29T18:46:15.318Z,95362.00
2023-03-29T18:50:15.503Z,95364.00
2023-03-29T18:54:15.667Z,95374.00
2023-03-29T18:58:15.758Z,95387.00
2023-03-29T19:02:16.060Z,95391.00
2023-03-29T19:06:16.133Z,95387.00
2023-03-29T19:10:16.290Z,95395.00
2023-03-29T19:14:16.552Z,95401.00
2023-03-29T19:18:16.683Z,95393.00
2023-03-29T19:22:16.774Z,95409.00
2023-03-29T19:26:17.069Z,95411.00
2023-03-29T19:30:17.136Z,95405.00
2023-03-29T19:34:17.308Z,95411.00
2023-03-29T19:38:17.536Z,95401.00
2023-03-29T19:42:17.751Z,95419.00
2023-03-29T19:46:17.913Z,95433.00
2023-03-29T19:50:18.127Z,95434.00
2023-03-29T19:54:18.289Z,95438.00
2023-03-29T19:58:18.535Z,95440.00
2023-03-29T20:02:18.733Z,95436.00
2023-03-29T20:06:18.918Z,95446.00
2023-03-29T20:10:19.100Z,95450.00
2023-03-29T20:14:19.347Z,95450.00
2023-03-29T20:18:19.522Z,95446.00
2023-03-29T20:22:19.766Z,95444.00
2023-03-29T20:26:19.982Z,95444.00
2023-03-29T20:30:20.214Z,95434.00
2023-03-29T20:34:20.330Z,95434.00
2023-03-29T20:38:20.571Z,95433.00
2023-03-29T20:42:20.776Z,95429.00
2023-03-29T20:46:21.012Z,95421.00
2023-03-29T20:50:21.216Z,95419.00
2023-03-29T20:54:21.438Z,95409.00
2023-03-29T20:58:21.383Z,95407.00
2023-03-29T21:02:21.657Z,95401.00
2023-03-29T21:06:21.297Z,95387.00
2023-03-29T21:10:21.284Z,95383.00
2023-03-29T21:14:21.304Z,95378.00
2023-03-29T21:18:21.172Z,95378.00
2023-03-29T21:22:21.134Z,95378.00
2023-03-29T21:26:21.116Z,95378.00
2023-03-29T21:30:21.131Z,95378.00
2023-03-29T21:34:21.175Z,95368.00
2023-03-29T21:38:21.359Z,95374.00
2023-03-29T21:42:21.523Z,95372.00
2023-03-29T21:46:21.547Z,95372.00
2023-03-29T21:50:21.488Z,95366.00
2023-03-29T21:54:21.430Z,95370.00
2023-03-29T21:58:21.428Z,95368.00
2023-03-29T22:02:21.422Z,95366.00
2023-03-29T22:06:21.382Z,95368.00
2023-03-29T22:10:21.289Z,95378.00
2023-03-29T22:14:21.258Z,95376.00
2023-03-29T22:18:21.230Z,95374.00
2023-03-29T22:22:21.227Z,95378.00
2023-03-29T22:26:21.249Z,95374.00
2023-03-29T22:30:21.516Z,95378.00
2023-03-29T22:34:21.741Z,95378.00
2023-03-29T22:38:21.887Z,95378.00
2023-03-29T22:42:22.022Z,95374.00
2023-03-29T22:46:22.242Z,95354.00
2023-03-29T22:50:22.376Z,95364.00
2023-03-29T22:54:22.482Z,95358.00
2023-03-29T22:58:22.573Z,95358.00
2023-03-29T23:02:22.698Z,95358.00
2023-03-29T23:06:22.870Z,95352.00
2023-03-29T23:10:22.991Z,95358.00
2023-03-29T23:14:23.062Z,95352.00
2023-03-29T23:18:23.212Z,95350.00
2023-03-29T23:22:23.274Z,95346.00
2023-03-29T23:26:23.343Z,95344.00
2023-03-29T23:30:23.467Z,95340.00
2023-03-29T23:34:23.542Z,95336.00
2023-03-29T23:38:23.634Z,95336.00
2023-03-29T23:42:23.758Z,95333.00
2023-03-29T23:46:23.981Z,95315.00
2023-03-29T23:50:24.010Z,95313.00
2023-03-29T23:54:24.078Z,95305.00
2023-03-29T23:58:24.220Z,95299.00
